KNKX

Miramar MCAS Airport

San Diego, California, USA
METAR KNKX 201055Z 05006KT 10SM CLR 13/07 A3008 RMK AO2 SLP181 T01330067 $
Observed Flight Rules
Jan-20 @ 10:55 UTC (43 minutes ago) Visual Flight Rules
Wind Visibility Clouds
50° at 6 knots 10 miles
  • Clear skies
Temperatures Readings
Current 13°C / 55°F
Dewpoint 7°C / 45°F
Humidity 67%
Altimeter 30.08" Hg
Pressure 1018.1 hPa
Elevation 146
METAR KNKX 201055Z 05006KT 10SM CLR 13/07 A3008 RMK AO2 SLP181 T01330067 $
Observed Flight Rules
Jan-20 @ 10:55 UTC
(43 minutes ago)
VFR
Wind Visibility
50° at 6 knots 10 miles
Clouds
  • Clear skies
Temperature Dewpoint
13°C / 55°F 7°C / 45°F
Humidity Altimeter Pressure
67% 30.08" Hg 1018.1 hPa